Carnival Vista — 3EMB9 — position and weather

sailwx.info

Track history (hours):
 
Tides and Currents Weather Stations Pressure Air Temp Water Temp Dewpoint Dewpoint Depression Visibility Wind Speed Wind Dir Waves Ship Positions

Carnival Vista

Last reported at 2019-Jan-21 11:00 UTC. Time now 2019-Jan-23 22:47 UTC.
Position N 20°42' W 086°36'.

Length 324 m; draft 8.5 m.

Type: Passenger vessel. MMSI: 356883000.

Wind from 310 at 24 knots

Barometer 1021.4 mb
Air temperature 23.0 ° C
Visibility: greater than 10.8 NM
Dewpoint 19.9 ° C
Water temperature 26.0 ° C

Date/timePositionNaut miles runAvg speedWind from/ knotsBaromVisibWave heightAir tempDewpointWater temp
2019-Jan-21 11:00N 20°42' W 086°36'4824.0 310 / 241021.410.8 23.019.926.0
2019-Jan-21 09:00N 21°30' W 086°36'41218.7 350 / 201021.710.8 21.016.024.0
2019-Jan-20 11:00N 26°42' W 091°30'23320.2 340 / 271021.310.8 12.0 2.915.0
2019-Jan-19 23:26N 29°21' W 094°43'4 9.0
2019-Jan-19 22:57N 29°19' W 094°48'0 0.1
2019-Jan-19 22:27N 29°19' W 094°48'0 0.0
2019-Jan-19 21:57N 29°19' W 094°48'0 0.0
2019-Jan-19 21:27N 29°19' W 094°48'0 0.0
2019-Jan-19 20:57N 29°19' W 094°48'0 0.0
2019-Jan-19 20:27N 29°19' W 094°48'0 0.0
2019-Jan-19 19:51N 29°19' W 094°48'0 0.0
2019-Jan-19 19:27N 29°19' W 094°48'0 0.0
2019-Jan-19 18:39N 29°19' W 094°48'0 0.0
2019-Jan-19 18:21N 29°19' W 094°48'0 0.0
2019-Jan-19 17:45N 29°19' W 094°48'0 0.0
2019-Jan-19 17:27N 29°19' W 094°48'0 0.0
2019-Jan-19 16:51N 29°19' W 094°48'0 0.0
2019-Jan-19 16:27N 29°19' W 094°48'0 0.0
2019-Jan-19 15:57N 29°19' W 094°48'0 0.0
2019-Jan-19 15:21N 29°19' W 094°48'0 0.0
2019-Jan-19 14:57N 29°19' W 094°48'0 0.0
2019-Jan-19 14:15N 29°19' W 094°48'0 0.0
2019-Jan-19 13:57N 29°19' W 094°48'0 0.0
2019-Jan-19 13:27N 29°19' W 094°48'0 0.0
2019-Jan-19 12:52N 29°19' W 094°48'1 2.2
2019-Jan-19 12:30N 29°19' W 094°47'1 2.4
2019-Jan-19 12:00N 29°20' W 094°46'510.9
2019-Jan-19 11:30N 29°20' W 094°40'611.8
2019-Jan-19 11:00N 29°17' W 094°34'611.2
2019-Jan-19 10:30N 29°13' W 094°29'1516.9
2019-Jan-19 09:37N 29°05' W 094°15'217.3
2019-Jan-19 09:30N 29°04' W 094°13'1117.9
2019-Jan-19 08:54N 28°58' W 094°03'718.2
2019-Jan-19 08:30N 28°54' W 093°56'918.3
2019-Jan-19 08:00N 28°48' W 093°48'2018.6
2019-Jan-19 06:56N 28°37' W 093°29'818.8
2019-Jan-19 06:30N 28°32' W 093°22'37920.5
2019-Jan-18 12:00N 23°48' W 088°42'21617.6 070 / 111020.810.8 25.020.425.0
2019-Jan-17 23:44N 20°34' W 086°59'416.3
2019-Jan-17 23:30N 20°31' W 087°01'3 5.3
2019-Jan-17 22:59N 20°29' W 086°59'0 0.0
2019-Jan-17 22:26N 20°29' W 086°59'0 0.0
2019-Jan-17 21:56N 20°29' W 086°59'0 0.0
2019-Jan-17 21:26N 20°29' W 086°59'0 0.0
2019-Jan-17 20:59N 20°29' W 086°59'0 0.0
2019-Jan-17 20:26N 20°29' W 086°59'0 0.0
2019-Jan-17 19:56N 20°29' W 086°59'0 0.0
2019-Jan-17 19:29N 20°29' W 086°59'0 0.0
2019-Jan-17 18:59N 20°29' W 086°59'0 0.0
2019-Jan-17 18:29N 20°29' W 086°59'0 0.0
2019-Jan-17 17:59N 20°29' W 086°59'0 0.0
2019-Jan-17 17:29N 20°29' W 086°59'0 0.0
2019-Jan-17 16:59N 20°29' W 086°59'0 0.0
2019-Jan-17 16:29N 20°29' W 086°59'0 0.0
2019-Jan-17 15:59N 20°29' W 086°59'0 0.0
2019-Jan-17 15:29N 20°29' W 086°59'0 0.0
2019-Jan-17 14:59N 20°29' W 086°59'0 0.1
2019-Jan-17 14:30N 20°29' W 086°59'3 5.7
2019-Jan-17 14:00N 20°31' W 086°59'611.4
2019-Jan-17 13:30N 20°36' W 086°56'8318.3
2019-Jan-17 09:00N 20°18' W 085°30'146 3.2 050 / 251019.310.8 23.018.327.0
2019-Jan-15 11:00N 22°30' W 086°36'52216.8 020 / 211020.910.8 24.019.325.0
2019-Jan-14 03:59N 28°36' W 093°29'816.8
2019-Jan-14 03:30N 28°40' W 093°37'916.6
2019-Jan-14 02:57N 28°45' W 093°45'916.4
2019-Jan-14 02:25N 28°50' W 093°53'816.2
2019-Jan-14 01:56N 28°55' W 094°01'716.0
2019-Jan-14 01:30N 28°59' W 094°07'815.7
2019-Jan-14 00:59N 29°04' W 094°15'815.5
2019-Jan-14 00:29N 29°08' W 094°22'1015.1
2019-Jan-13 23:48N 29°13' W 094°33'515.5
2019-Jan-13 23:30N 29°16' W 094°36'911.5
2019-Jan-13 22:43N 29°21' W 094°45'2 9.2
2019-Jan-13 22:30N 29°19' W 094°47'1 1.5
2019-Jan-13 21:45N 29°19' W 094°48'0 0.0
2019-Jan-13 21:06N 29°19' W 094°48'0 0.0
2019-Jan-13 21:00N 29°19' W 094°48'0 0.0
2019-Jan-13 20:24N 29°19' W 094°48'0 0.0
2019-Jan-13 19:24N 29°19' W 094°48'0 0.0
2019-Jan-13 18:51N 29°19' W 094°48'0 0.0
2019-Jan-13 18:30N 29°19' W 094°48'0 0.0
2019-Jan-13 17:54N 29°19' W 094°48'0 0.0
2019-Jan-13 17:27N 29°19' W 094°48'0 0.0
2019-Jan-13 17:00N 29°19' W 094°48'0 0.0
2019-Jan-13 16:30N 29°19' W 094°48'0 0.0
2019-Jan-13 15:54N 29°19' W 094°48'0 0.0
2019-Jan-13 15:30N 29°19' W 094°48'0 0.0
2019-Jan-13 15:00N 29°19' W 094°48'0 0.0
2019-Jan-13 14:30N 29°19' W 094°48'0 0.0
2019-Jan-13 13:51N 29°19' W 094°48'0 0.0
2019-Jan-13 13:30N 29°19' W 094°48'0 0.0
2019-Jan-13 12:57N 29°19' W 094°48'0 0.7
2019-Jan-13 12:30N 29°19' W 094°47'1 2.3
2019-Jan-13 12:00N 29°20' W 094°47'611.1
2019-Jan-13 11:30N 29°20' W 094°40'713.5
2019-Jan-13 11:00N 29°17' W 094°34'815.6
2019-Jan-13 10:29N 29°11' W 094°26'817.3
2019-Jan-13 10:00N 29°07' W 094°18'1117.2
2019-Jan-13 09:22N 29°01' W 094°08'63918.7
2019-Jan-11 23:09N 20°35' W 086°59'318.5
2019-Jan-11 23:00N 20°32' W 087°00'4 7.1
2019-Jan-11 22:26N 20°29' W 086°59'0 0.0
2019-Jan-11 21:56N 20°29' W 086°59'0 0.0
2019-Jan-11 21:26N 20°29' W 086°59'0 0.0
2019-Jan-11 20:50N 20°29' W 086°59'0 0.0
2019-Jan-11 20:26N 20°29' W 086°59'0 0.0
2019-Jan-11 19:56N 20°29' W 086°59'0 0.0
2019-Jan-11 19:26N 20°29' W 086°59'0 0.0
2019-Jan-11 18:56N 20°29' W 086°59'0 0.0
2019-Jan-11 18:26N 20°29' W 086°59'0 0.0
2019-Jan-11 17:56N 20°29' W 086°59'0 0.0
2019-Jan-11 17:26N 20°29' W 086°59'0 0.0
2019-Jan-11 16:56N 20°29' W 086°59'0 0.0
2019-Jan-11 16:26N 20°29' W 086°59'0 0.0
2019-Jan-11 15:56N 20°29' W 086°59'0 0.0
2019-Jan-11 15:26N 20°29' W 086°59'0 0.0
2019-Jan-11 14:56N 20°29' W 086°59'0 0.0
2019-Jan-11 14:26N 20°29' W 086°59'0 0.0
2019-Jan-11 13:56N 20°29' W 086°59'0 0.0
2019-Jan-11 13:26N 20°29' W 086°59'1 2.6
2019-Jan-11 13:00N 20°30' W 086°59'4 7.9
2019-Jan-11 12:30N 20°29' W 087°03'714.6
2019-Jan-11 12:00N 20°22' W 087°06'  
Track history (hours):
 
Tides and Currents Weather Stations Pressure Air Temp Water Temp Dewpoint Dewpoint Depression Visibility Wind Speed Wind Dir Waves Ship Positions

Carnival Vista

Last reported at 2019-Jan-21 11:00 UTC. Time now 2019-Jan-23 22:47 UTC.
Position N 20°42' W 086°36'.

Length 324 m; draft 8.5 m.

Type: Passenger vessel. MMSI: 356883000.

Wind from 310 at 24 knots

Barometer 1021.4 mb
Air temperature 23.0 ° C
Visibility: greater than 10.8 NM
Dewpoint 19.9 ° C
Water temperature 26.0 ° C

Date/timePositionNaut miles runAvg speedWind from/ knotsBaromVisibWave heightAir tempDewpointWater temp
2019-Jan-21 11:00N 20°42' W 086°36'4824.0 310 / 241021.410.8 23.019.926.0
2019-Jan-21 09:00N 21°30' W 086°36'41218.7 350 / 201021.710.8 21.016.024.0
2019-Jan-20 11:00N 26°42' W 091°30'23320.2 340 / 271021.310.8 12.0 2.915.0
2019-Jan-19 23:26N 29°21' W 094°43'4 9.0
2019-Jan-19 22:57N 29°19' W 094°48'0 0.1
2019-Jan-19 22:27N 29°19' W 094°48'0 0.0
2019-Jan-19 21:57N 29°19' W 094°48'0 0.0
2019-Jan-19 21:27N 29°19' W 094°48'0 0.0
2019-Jan-19 20:57N 29°19' W 094°48'0 0.0
2019-Jan-19 20:27N 29°19' W 094°48'0 0.0
2019-Jan-19 19:51N 29°19' W 094°48'0 0.0
2019-Jan-19 19:27N 29°19' W 094°48'0 0.0
2019-Jan-19 18:39N 29°19' W 094°48'0 0.0
2019-Jan-19 18:21N 29°19' W 094°48'0 0.0
2019-Jan-19 17:45N 29°19' W 094°48'0 0.0
2019-Jan-19 17:27N 29°19' W 094°48'0 0.0
2019-Jan-19 16:51N 29°19' W 094°48'0 0.0
2019-Jan-19 16:27N 29°19' W 094°48'0 0.0
2019-Jan-19 15:57N 29°19' W 094°48'0 0.0
2019-Jan-19 15:21N 29°19' W 094°48'0 0.0
2019-Jan-19 14:57N 29°19' W 094°48'0 0.0
2019-Jan-19 14:15N 29°19' W 094°48'0 0.0
2019-Jan-19 13:57N 29°19' W 094°48'0 0.0
2019-Jan-19 13:27N 29°19' W 094°48'0 0.0
2019-Jan-19 12:52N 29°19' W 094°48'1 2.2
2019-Jan-19 12:30N 29°19' W 094°47'1 2.4
2019-Jan-19 12:00N 29°20' W 094°46'510.9
2019-Jan-19 11:30N 29°20' W 094°40'611.8
2019-Jan-19 11:00N 29°17' W 094°34'611.2
2019-Jan-19 10:30N 29°13' W 094°29'1516.9
2019-Jan-19 09:37N 29°05' W 094°15'217.3
2019-Jan-19 09:30N 29°04' W 094°13'1117.9
2019-Jan-19 08:54N 28°58' W 094°03'718.2
2019-Jan-19 08:30N 28°54' W 093°56'918.3
2019-Jan-19 08:00N 28°48' W 093°48'2018.6
2019-Jan-19 06:56N 28°37' W 093°29'818.8
2019-Jan-19 06:30N 28°32' W 093°22'37920.5
2019-Jan-18 12:00N 23°48' W 088°42'21617.6 070 / 111020.810.8 25.020.425.0
2019-Jan-17 23:44N 20°34' W 086°59'416.3
2019-Jan-17 23:30N 20°31' W 087°01'3 5.3
2019-Jan-17 22:59N 20°29' W 086°59'0 0.0
2019-Jan-17 22:26N 20°29' W 086°59'0 0.0
2019-Jan-17 21:56N 20°29' W 086°59'0 0.0
2019-Jan-17 21:26N 20°29' W 086°59'0 0.0
2019-Jan-17 20:59N 20°29' W 086°59'0 0.0
2019-Jan-17 20:26N 20°29' W 086°59'0 0.0
2019-Jan-17 19:56N 20°29' W 086°59'0 0.0
2019-Jan-17 19:29N 20°29' W 086°59'0 0.0
2019-Jan-17 18:59N 20°29' W 086°59'0 0.0
2019-Jan-17 18:29N 20°29' W 086°59'0 0.0
2019-Jan-17 17:59N 20°29' W 086°59'0 0.0
2019-Jan-17 17:29N 20°29' W 086°59'0 0.0
2019-Jan-17 16:59N 20°29' W 086°59'0 0.0
2019-Jan-17 16:29N 20°29' W 086°59'0 0.0
2019-Jan-17 15:59N 20°29' W 086°59'0 0.0
2019-Jan-17 15:29N 20°29' W 086°59'0 0.0
2019-Jan-17 14:59N 20°29' W 086°59'0 0.1
2019-Jan-17 14:30N 20°29' W 086°59'3 5.7
2019-Jan-17 14:00N 20°31' W 086°59'611.4
2019-Jan-17 13:30N 20°36' W 086°56'8318.3
2019-Jan-17 09:00N 20°18' W 085°30'146 3.2 050 / 251019.310.8 23.018.327.0
2019-Jan-15 11:00N 22°30' W 086°36'52216.8 020 / 211020.910.8 24.019.325.0
2019-Jan-14 03:59N 28°36' W 093°29'816.8
2019-Jan-14 03:30N 28°40' W 093°37'916.6
2019-Jan-14 02:57N 28°45' W 093°45'916.4
2019-Jan-14 02:25N 28°50' W 093°53'816.2
2019-Jan-14 01:56N 28°55' W 094°01'716.0
2019-Jan-14 01:30N 28°59' W 094°07'815.7
2019-Jan-14 00:59N 29°04' W 094°15'815.5
2019-Jan-14 00:29N 29°08' W 094°22'1015.1
2019-Jan-13 23:48N 29°13' W 094°33'515.5
2019-Jan-13 23:30N 29°16' W 094°36'911.5
2019-Jan-13 22:43N 29°21' W 094°45'2 9.2
2019-Jan-13 22:30N 29°19' W 094°47'1 1.5
2019-Jan-13 21:45N 29°19' W 094°48'0 0.0
2019-Jan-13 21:06N 29°19' W 094°48'0 0.0
2019-Jan-13 21:00N 29°19' W 094°48'0 0.0
2019-Jan-13 20:24N 29°19' W 094°48'0 0.0
2019-Jan-13 19:24N 29°19' W 094°48'0 0.0
2019-Jan-13 18:51N 29°19' W 094°48'0 0.0
2019-Jan-13 18:30N 29°19' W 094°48'0 0.0
2019-Jan-13 17:54N 29°19' W 094°48'0 0.0
2019-Jan-13 17:27N 29°19' W 094°48'0 0.0
2019-Jan-13 17:00N 29°19' W 094°48'0 0.0
2019-Jan-13 16:30N 29°19' W 094°48'0 0.0
2019-Jan-13 15:54N 29°19' W 094°48'0 0.0
2019-Jan-13 15:30N 29°19' W 094°48'0 0.0
2019-Jan-13 15:00N 29°19' W 094°48'0 0.0
2019-Jan-13 14:30N 29°19' W 094°48'0 0.0
2019-Jan-13 13:51N 29°19' W 094°48'0 0.0
2019-Jan-13 13:30N 29°19' W 094°48'0 0.0
2019-Jan-13 12:57N 29°19' W 094°48'0 0.7
2019-Jan-13 12:30N 29°19' W 094°47'1 2.3
2019-Jan-13 12:00N 29°20' W 094°47'611.1
2019-Jan-13 11:30N 29°20' W 094°40'713.5
2019-Jan-13 11:00N 29°17' W 094°34'815.6
2019-Jan-13 10:29N 29°11' W 094°26'817.3
2019-Jan-13 10:00N 29°07' W 094°18'1117.2
2019-Jan-13 09:22N 29°01' W 094°08'63918.7
2019-Jan-11 23:09N 20°35' W 086°59'318.5
2019-Jan-11 23:00N 20°32' W 087°00'4 7.1
2019-Jan-11 22:26N 20°29' W 086°59'0 0.0
2019-Jan-11 21:56N 20°29' W 086°59'0 0.0
2019-Jan-11 21:26N 20°29' W 086°59'0 0.0
2019-Jan-11 20:50N 20°29' W 086°59'0 0.0
2019-Jan-11 20:26N 20°29' W 086°59'0 0.0
2019-Jan-11 19:56N 20°29' W 086°59'0 0.0
2019-Jan-11 19:26N 20°29' W 086°59'0 0.0
2019-Jan-11 18:56N 20°29' W 086°59'0 0.0
2019-Jan-11 18:26N 20°29' W 086°59'0 0.0
2019-Jan-11 17:56N 20°29' W 086°59'0 0.0
2019-Jan-11 17:26N 20°29' W 086°59'0 0.0
2019-Jan-11 16:56N 20°29' W 086°59'0 0.0
2019-Jan-11 16:26N 20°29' W 086°59'0 0.0
2019-Jan-11 15:56N 20°29' W 086°59'0 0.0
2019-Jan-11 15:26N 20°29' W 086°59'0 0.0
2019-Jan-11 14:56N 20°29' W 086°59'0 0.0
2019-Jan-11 14:26N 20°29' W 086°59'0 0.0
2019-Jan-11 13:56N 20°29' W 086°59'0 0.0
2019-Jan-11 13:26N 20°29' W 086°59'1 2.6
2019-Jan-11 13:00N 20°30' W 086°59'4 7.9
2019-Jan-11 12:30N 20°29' W 087°03'714.6
2019-Jan-11 12:00N 20°22' W 087°06'  

Dump ship's entire track history